Time;durP1;ratioP1;P1;durP2;ratioP2;P2;SDS_P1;SDS_P2;PMS_P1;PMS_P2;Temp;Humidity;BMP_temperature;BMP_pressure;BME280_temperature;BME280_humidity;BME280_pressure;Samples;Min_cycle;Max_cycle;Signal;HPM_P1;HPM_P2
2021/12/03 00:01:17;;;;;;;10.13;3.53;;;5.70;99.90;;;;;;5092481;28;20193;-57
2021/12/03 00:03:43;;;;;;;7.80;3.27;;;5.70;99.90;;;;;;5092340;28;20176;-58
2021/12/03 00:06:10;;;;;;;9.07;3.43;;;5.80;99.90;;;;;;5092529;28;20177;-53
2021/12/03 00:08:36;;;;;;;8.13;3.53;;;5.90;99.90;;;;;;5092516;28;20180;-56
2021/12/03 00:11:03;;;;;;;6.53;3.40;;;5.90;99.90;;;;;;5091710;28;20196;-53
2021/12/03 00:13:32;;;;;;;8.03;3.63;;;6.00;99.90;;;;;;5092306;28;20173;-54
2021/12/03 00:15:59;;;;;;;6.27;2.87;;;6.00;99.90;;;;;;5073914;28;20624;-54
2021/12/03 00:18:25;;;;;;;8.43;3.13;;;6.00;99.90;;;;;;5092328;28;20173;-55
2021/12/03 00:20:52;;;;;;;6.23;3.00;;;6.00;99.90;;;;;;5091820;28;20186;-55
2021/12/03 00:23:19;;;;;;;8.60;3.30;;;6.00;99.90;;;;;;5092218;28;20276;-56
2021/12/03 00:25:45;;;;;;;7.00;3.30;;;6.00;99.90;;;;;;5073516;28;20257;-55
2021/12/03 00:28:11;;;;;;;5.37;2.63;;;6.00;99.90;;;;;;5091447;28;20702;-53
2021/12/03 00:30:37;;;;;;;8.93;2.87;;;6.00;99.90;;;;;;5092211;28;20237;-54
2021/12/03 00:33:05;;;;;;;9.90;3.20;;;6.00;99.90;;;;;;5091565;28;20185;-50
2021/12/03 00:35:30;;;;;;;7.27;3.37;;;5.90;99.90;;;;;;5092004;28;20210;-52
2021/12/03 00:37:56;;;;;;;5.83;3.00;;;5.90;99.90;;;;;;5091691;28;20183;-56
2021/12/03 00:40:27;;;;;;;5.97;3.23;;;5.90;99.90;;;;;;5091877;28;20191;-57
2021/12/03 00:42:53;;;;;;;6.83;3.30;;;6.00;99.90;;;;;;5091717;28;20180;-52
2021/12/03 00:45:20;;;;;;;9.43;3.40;;;6.00;99.90;;;;;;5091963;28;20582;-55
2021/12/03 00:47:47;;;;;;;7.47;3.27;;;5.90;99.90;;;;;;5091514;28;20173;-56
2021/12/03 00:50:20;;;;;;;9.47;3.67;;;5.80;99.90;;;;;;5091899;28;20640;-55
2021/12/03 00:52:47;;;;;;;6.77;3.33;;;5.80;99.90;;;;;;5091682;28;20215;-57
2021/12/03 00:55:15;;;;;;;8.30;3.27;;;5.80;99.90;;;;;;5091951;28;20226;-58
2021/12/03 00:57:40;;;;;;;8.97;3.30;;;5.80;99.90;;;;;;5073694;28;20175;-54
2021/12/03 01:00:15;;;;;;;5.97;2.80;;;5.80;99.90;;;;;;5091301;28;20700;-55
2021/12/03 01:02:41;;;;;;;5.60;2.57;;;5.80;99.90;;;;;;5091937;28;20196;-56
2021/12/03 01:05:07;;;;;;;5.57;2.93;;;5.80;99.90;;;;;;5091380;28;20176;-53
2021/12/03 01:07:33;;;;;;;6.23;3.17;;;5.70;99.90;;;;;;5091823;28;20188;-57
2021/12/03 01:09:59;;;;;;;4.90;2.90;;;5.80;99.90;;;;;;5091475;28;20183;-49
2021/12/03 01:12:25;;;;;;;10.07;3.93;;;5.70;99.90;;;;;;5091333;28;20239;-51
2021/12/03 01:14:50;;;;;;;8.47;3.20;;;5.80;99.90;;;;;;5091249;28;20712;-54
2021/12/03 01:17:16;;;;;;;7.30;3.43;;;5.60;99.90;;;;;;5091416;28;20183;-54
2021/12/03 01:19:42;;;;;;;7.20;3.20;;;5.50;99.90;;;;;;5091789;28;20179;-52
2021/12/03 01:22:08;;;;;;;8.20;3.03;;;5.40;99.90;;;;;;5091399;28;20244;-56
2021/12/03 01:24:34;;;;;;;6.10;3.40;;;5.50;99.90;;;;;;5091806;28;20189;-54
2021/12/03 01:27:00;;;;;;;6.87;3.37;;;5.40;99.90;;;;;;5091403;28;20173;-55
2021/12/03 01:29:26;;;;;;;6.93;3.33;;;5.40;99.90;;;;;;5091423;28;20177;-51
2021/12/03 01:31:54;;;;;;;6.37;3.20;;;5.40;99.90;;;;;;5091342;28;20624;-54
2021/12/03 01:34:20;;;;;;;8.53;3.90;;;5.30;99.90;;;;;;5091408;28;20237;-55
2021/12/03 01:36:46;;;;;;;9.80;3.23;;;5.10;99.90;;;;;;5091648;28;20192;-52
2021/12/03 01:39:13;;;;;;;9.93;3.23;;;5.00;99.90;;;;;;5091354;28;20178;-52
2021/12/03 01:41:39;;;;;;;10.37;3.10;;;5.00;99.90;;;;;;5095580;28;20193;-53
2021/12/03 01:44:05;;;;;;;5.50;2.43;;;5.00;99.90;;;;;;5094659;28;20187;-56
2021/12/03 01:46:32;;;;;;;8.83;3.23;;;5.00;99.90;;;;;;5095430;28;20174;-51
2021/12/03 01:48:59;;;;;;;5.33;2.57;;;5.00;99.90;;;;;;5094713;28;20508;-54
2021/12/03 01:51:26;;;;;;;4.87;2.70;;;5.10;99.90;;;;;;5095154;28;20227;-53
2021/12/03 01:53:53;;;;;;;8.73;2.53;;;5.00;99.90;;;;;;5094713;28;20227;-54
2021/12/03 01:56:20;;;;;;;6.07;2.03;;;5.00;99.90;;;;;;5094943;28;20190;-54
2021/12/03 01:58:47;;;;;;;5.80;2.47;;;5.10;99.90;;;;;;5094755;28;20508;-55
2021/12/03 02:01:16;;;;;;;5.87;2.30;;;5.20;99.90;;;;;;5094467;28;20181;-53
2021/12/03 02:03:46;;;;;;;4.53;1.77;;;5.30;99.90;;;;;;5094969;28;20179;-52
2021/12/03 02:06:14;;;;;;;5.57;2.37;;;5.30;99.90;;;;;;5094408;28;20206;-54
2021/12/03 02:08:41;;;;;;;6.77;2.47;;;5.40;99.90;;;;;;5094668;28;20176;-57
2021/12/03 02:11:09;;;;;;;5.13;2.07;;;5.50;99.90;;;;;;5076014;28;20646;-54
2021/12/03 02:13:36;;;;;;;5.70;2.77;;;5.40;99.90;;;;;;5094304;28;20222;-57
2021/12/03 02:16:03;;;;;;;4.80;2.63;;;5.20;99.90;;;;;;5094436;28;20213;-55
2021/12/03 02:18:30;;;;;;;5.93;2.73;;;5.10;99.90;;;;;;5094453;28;20182;-55
2021/12/03 02:20:58;;;;;;;8.03;3.40;;;5.00;99.90;;;;;;5093854;28;20531;-53
2021/12/03 02:23:25;;;;;;;5.70;2.77;;;5.10;99.90;;;;;;5094314;28;20248;-54
2021/12/03 02:25:52;;;;;;;6.10;2.83;;;5.10;99.90;;;;;;5093999;28;20278;-63
2021/12/03 02:28:21;;;;;;;5.77;3.30;;;5.20;99.90;;;;;;5094506;28;20214;-54
2021/12/03 02:30:48;;;;;;;8.00;2.60;;;5.30;99.90;;;;;;5076401;28;20188;-52
2021/12/03 02:33:14;;;;;;;5.03;2.10;;;5.50;99.90;;;;;;5094222;28;20696;-54
2021/12/03 02:35:42;;;;;;;4.97;2.30;;;5.70;99.90;;;;;;5075990;28;20211;-55
2021/12/03 02:38:10;;;;;;;5.00;2.33;;;5.80;99.90;;;;;;5093870;28;20207;-55
2021/12/03 02:40:36;;;;;;;6.23;2.87;;;6.00;99.90;;;;;;5094194;28;20624;-55
2021/12/03 02:43:02;;;;;;;7.57;2.87;;;6.10;99.90;;;;;;5093829;28;20730;-56
2021/12/03 02:45:28;;;;;;;9.27;3.23;;;6.10;99.90;;;;;;5075670;28;20225;-53
2021/12/03 02:47:56;;;;;;;12.87;3.27;;;6.10;99.90;;;;;;5075876;28;20208;-53
2021/12/03 02:50:22;;;;;;;6.57;3.17;;;6.10;99.90;;;;;;5094098;28;20329;-55
2021/12/03 02:52:50;;;;;;;7.87;3.03;;;6.10;99.90;;;;;;5093239;28;20274;-54
2021/12/03 02:55:16;;;;;;;7.27;3.07;;;6.10;99.90;;;;;;5093846;28;20739;-54
2021/12/03 02:57:42;;;;;;;13.67;4.27;;;6.10;99.90;;;;;;5093772;28;20269;-55
2021/12/03 03:00:11;;;;;;;13.53;4.67;;;6.00;99.90;;;;;;5093224;28;20183;-56
2021/12/03 03:02:37;;;;;;;19.17;5.70;;;6.00;99.90;;;;;;5093543;28;20244;-57
2021/12/03 03:05:03;;;;;;;10.93;4.90;;;6.00;99.90;;;;;;5093042;28;20622;-57
2021/12/03 03:07:30;;;;;;;17.60;5.83;;;5.90;99.90;;;;;;5075322;28;20184;-54
2021/12/03 03:09:56;;;;;;;13.37;5.00;;;5.90;99.90;;;;;;5093281;28;20324;-51
2021/12/03 03:12:22;;;;;;;5.70;3.13;;;5.80;99.90;;;;;;5093299;28;20662;-57
2021/12/03 03:14:56;;;;;;;4.27;2.30;;;5.80;99.90;;;;;;5092988;28;20355;-54
2021/12/03 03:17:23;;;;;;;6.03;2.40;;;5.90;99.90;;;;;;5093339;28;20542;-55
2021/12/03 03:19:50;;;;;;;5.23;2.30;;;5.90;99.90;;;;;;5093221;28;20248;-56
2021/12/03 03:22:16;;;;;;;5.03;2.77;;;5.90;99.90;;;;;;5093003;28;20173;-55
2021/12/03 03:24:42;;;;;;;6.20;2.53;;;5.90;99.90;;;;;;5092634;28;20193;-54
2021/12/03 03:27:08;;;;;;;7.63;2.63;;;5.80;99.90;;;;;;5074661;28;20190;-55
2021/12/03 03:29:34;;;;;;;5.80;2.57;;;5.90;99.90;;;;;;5092629;28;20264;-53
2021/12/03 03:32:01;;;;;;;5.10;2.13;;;6.00;99.90;;;;;;5092751;28;20182;-53
2021/12/03 03:34:26;;;;;;;8.00;2.57;;;6.00;99.90;;;;;;5093002;28;20298;-55
2021/12/03 03:36:52;;;;;;;9.33;2.70;;;6.10;99.90;;;;;;5092777;28;20190;-53
2021/12/03 03:39:19;;;;;;;10.70;2.40;;;6.20;99.90;;;;;;5092459;28;20545;-50
2021/12/03 03:41:46;;;;;;;4.10;1.90;;;6.40;99.90;;;;;;5074863;28;20276;-54
2021/12/03 03:44:15;;;;;;;6.77;2.13;;;6.50;99.90;;;;;;5092212;28;20185;-55
2021/12/03 03:46:43;;;;;;;5.63;2.50;;;6.50;99.90;;;;;;5092818;28;20181;-54
2021/12/03 03:49:09;;;;;;;7.27;2.57;;;6.50;99.90;;;;;;5092053;28;20181;-57
2021/12/03 03:51:35;;;;;;;6.67;2.00;;;6.50;99.90;;;;;;5092564;28;20181;-54
2021/12/03 03:54:01;;;;;;;5.10;2.37;;;6.50;99.90;;;;;;5092351;28;20215;-59
2021/12/03 03:56:27;;;;;;;7.37;2.40;;;6.40;99.90;;;;;;5092704;28;20351;-53
2021/12/03 03:58:53;;;;;;;8.97;2.40;;;6.40;99.90;;;;;;5092562;28;20180;-55
2021/12/03 04:01:19;;;;;;;4.27;2.13;;;6.40;99.90;;;;;;5091677;28;20193;-57
2021/12/03 04:03:46;;;;;;;5.63;2.20;;;6.30;99.90;;;;;;5092179;28;20184;-57
2021/12/03 04:06:17;;;;;;;3.07;1.60;;;6.50;99.90;;;;;;5092169;28;20272;-52
2021/12/03 04:08:45;;;;;;;5.13;2.10;;;6.60;99.90;;;;;;5092352;28;20640;-55
2021/12/03 04:11:11;;;;;;;3.73;1.80;;;6.70;99.90;;;;;;5073863;28;20217;-55
2021/12/03 04:13:37;;;;;;;3.93;1.70;;;6.70;99.90;;;;;;5092155;28;20229;-55
2021/12/03 04:16:04;;;;;;;3.67;1.33;;;6.90;99.90;;;;;;5073128;28;20680;-55
2021/12/03 04:18:30;;;;;;;2.27;1.20;;;7.20;99.90;;;;;;5092132;28;20188;-54
2021/12/03 04:20:55;;;;;;;3.40;1.50;;;7.50;99.90;;;;;;5057292;28;20181;-54
2021/12/03 04:23:21;;;;;;;2.43;1.17;;;7.70;99.90;;;;;;5091827;28;20601;-54
2021/12/03 04:25:49;;;;;;;1.83;1.00;;;8.00;99.90;;;;;;5091792;28;20667;-54
2021/12/03 04:28:16;;;;;;;2.83;1.00;;;8.20;99.90;;;;;;5091629;28;20181;-55
2021/12/03 04:30:42;;;;;;;2.57;1.40;;;8.30;99.90;;;;;;5073498;28;20511;-54
2021/12/03 04:33:08;;;;;;;10.23;1.20;;;8.50;99.90;;;;;;5091425;28;20187;-55
2021/12/03 04:35:35;;;;;;;2.53;0.77;;;8.60;99.90;;;;;;5091789;28;20229;-53
2021/12/03 04:38:01;;;;;;;3.10;1.60;;;8.60;99.90;;;;;;5091383;28;20201;-57
2021/12/03 04:40:31;;;;;;;2.43;0.80;;;8.60;99.90;;;;;;5091532;28;20180;-55
2021/12/03 04:42:57;;;;;;;7.77;1.20;;;8.60;99.90;;;;;;5091602;28;20233;-55
2021/12/03 04:45:24;;;;;;;2.07;0.60;;;8.60;99.90;;;;;;5090968;28;20188;-52
2021/12/03 04:47:52;;;;;;;1.47;0.70;;;8.80;99.90;;;;;;5091416;28;20175;-55
2021/12/03 04:50:20;;;;;;;3.27;0.80;;;8.80;99.90;;;;;;5090665;28;20187;-54
2021/12/03 04:52:47;;;;;;;1.40;0.90;;;8.90;99.90;;;;;;5091559;28;20176;-57
2021/12/03 04:55:13;;;;;;;3.53;1.30;;;9.10;99.90;;;;;;5090847;28;20737;-54
2021/12/03 04:57:40;;;;;;;3.03;0.90;;;9.10;99.90;;;;;;5091284;28;20191;-54
2021/12/03 05:00:10;;;;;;;2.53;1.00;;;9.10;99.90;;;;;;5091163;28;20651;-56
2021/12/03 05:02:37;;;;;;;2.30;1.30;;;9.20;99.90;;;;;;5073606;28;20196;-58
2021/12/03 05:05:05;;;;;;;2.43;0.80;;;9.40;99.90;;;;;;5090889;28;20279;-56
2021/12/03 05:07:43;;;;;;;2.90;1.20;;;9.50;99.90;;;;;;5090955;28;20215;-56
2021/12/03 05:10:10;;;;;;;5.17;1.00;;;9.60;99.90;;;;;;5090859;28;20576;-55
2021/12/03 05:12:37;;;;;;;3.07;1.10;;;9.60;99.90;;;;;;5090646;28;20237;-55
2021/12/03 05:15:03;;;;;;;4.30;1.00;;;9.80;99.90;;;;;;5091891;28;20520;-57
2021/12/03 05:17:29;;;;;;;3.47;1.10;;;9.80;99.90;;;;;;5094597;28;20644;-55
2021/12/03 05:19:55;;;;;;;5.33;2.57;;;9.70;99.90;;;;;;5094601;28;20258;-54
2021/12/03 05:22:21;;;;;;;2.67;1.30;;;9.60;99.90;;;;;;5094608;28;20210;-55
2021/12/03 05:24:46;;;;;;;5.80;2.03;;;9.60;99.90;;;;;;5094264;28;20625;-58
2021/12/03 05:27:17;;;;;;;5.83;1.60;;;9.50;99.90;;;;;;5094272;28;20185;-57
2021/12/03 05:29:46;;;;;;;6.83;1.50;;;9.50;99.90;;;;;;5094193;28;20281;-57
2021/12/03 05:32:12;;;;;;;1.63;1.00;;;9.40;99.90;;;;;;5094046;28;20214;-54
2021/12/03 05:34:39;;;;;;;4.27;1.23;;;9.50;99.90;;;;;;5093975;28;20209;-55
2021/12/03 05:37:07;;;;;;;4.50;1.33;;;9.50;99.90;;;;;;5093706;28;20173;-56
2021/12/03 05:39:36;;;;;;;9.53;2.27;;;9.40;99.90;;;;;;5093501;28;20498;-56
2021/12/03 05:42:04;;;;;;;4.23;1.60;;;9.40;99.90;;;;;;5093611;28;20234;-56
2021/12/03 05:44:30;;;;;;;4.40;1.23;;;9.30;99.90;;;;;;5076142;28;20181;-56
2021/12/03 05:46:57;;;;;;;5.87;1.83;;;9.30;99.90;;;;;;5075034;28;20620;-56
2021/12/03 05:49:23;;;;;;;2.53;1.50;;;9.30;99.90;;;;;;5093424;28;20637;-55
2021/12/03 05:51:49;;;;;;;2.60;1.50;;;9.40;99.90;;;;;;5093564;28;20178;-58
2021/12/03 05:54:15;;;;;;;5.00;1.87;;;9.40;99.90;;;;;;5074125;28;20277;-56
2021/12/03 05:56:41;;;;;;;11.60;1.83;;;9.40;99.90;;;;;;5093836;28;20178;-55
2021/12/03 05:59:07;;;;;;;7.37;1.57;;;9.50;99.90;;;;;;5075029;28;20640;-54
2021/12/03 06:01:32;;;;;;;6.83;1.73;;;9.50;99.90;;;;;;5093328;28;20181;-55
2021/12/03 06:03:58;;;;;;;3.40;2.00;;;9.40;99.90;;;;;;5093772;28;20189;-56
2021/12/03 06:06:24;;;;;;;6.83;1.73;;;9.50;99.90;;;;;;5074825;28;20223;-56
2021/12/03 06:08:50;;;;;;;5.97;2.43;;;9.60;99.90;;;;;;5093398;28;20576;-59
2021/12/03 06:11:16;;;;;;;4.97;2.00;;;9.60;99.90;;;;;;5093192;28;20222;-57
2021/12/03 06:13:42;;;;;;;9.73;2.63;;;9.60;99.90;;;;;;5093499;28;20255;-56
2021/12/03 06:16:09;;;;;;;19.60;4.40;;;9.60;99.90;;;;;;5093210;28;20290;-57
2021/12/03 06:18:36;;;;;;;7.07;1.87;;;9.60;99.90;;;;;;5092757;28;20271;-57
2021/12/03 06:21:04;;;;;;;5.97;2.13;;;9.60;99.90;;;;;;5092062;28;20170;-57
2021/12/03 06:23:30;;;;;;;10.23;3.97;;;9.60;99.90;;;;;;5089170;28;20833;-59
2021/12/03 06:25:58;;;;;;;10.37;4.50;;;9.50;99.90;;;;;;5088741;28;20223;-58
2021/12/03 06:28:25;;;;;;;9.40;5.37;;;9.20;99.90;;;;;;5090126;28;20215;-58
2021/12/03 06:30:51;;;;;;;13.57;6.90;;;8.60;99.90;;;;;;5090091;28;20186;-57
2021/12/03 06:33:18;;;;;;;19.77;7.63;;;7.90;99.90;;;;;;5072200;28;20709;-58
2021/12/03 06:35:47;;;;;;;15.93;7.57;;;7.40;99.90;;;;;;5090391;28;20548;-60
2021/12/03 06:38:14;;;;;;;18.23;7.47;;;7.10;99.90;;;;;;5089423;28;20177;-60
2021/12/03 06:40:40;;;;;;;12.97;6.40;;;6.90;99.90;;;;;;5089358;28;20553;-59
2021/12/03 06:43:06;;;;;;;12.93;5.97;;;6.70;99.90;;;;;;5089084;28;20253;-59
2021/12/03 06:45:32;;;;;;;9.23;5.27;;;6.50;99.90;;;;;;5089126;28;20258;-59
2021/12/03 06:47:58;;;;;;;13.83;7.33;;;6.40;99.90;;;;;;5089281;28;20188;-65
2021/12/03 06:50:24;;;;;;;15.23;7.30;;;6.30;99.90;;;;;;5088875;28;20576;-60
2021/12/03 06:53:14;;;;;;;12.10;6.33;;;6.20;99.90;;;;;;5052591;28;20555;-56
2021/12/03 06:55:50;;;;;;;11.43;6.43;;;6.00;99.90;;;;;;5070214;28;20319;-59
2021/12/03 06:58:19;;;;;;;10.33;6.20;;;5.90;99.90;;;;;;5070156;28;20234;-63
2021/12/03 07:00:46;;;;;;;12.00;6.87;;;5.80;99.90;;;;;;5083614;28;20187;-57
2021/12/03 07:03:13;;;;;;;16.63;7.20;;;5.90;99.90;;;;;;5071983;28;20703;-58
2021/12/03 07:05:38;;;;;;;10.50;5.57;;;5.80;99.90;;;;;;5091054;28;20258;-58
2021/12/03 07:08:05;;;;;;;6.70;3.60;;;5.70;99.90;;;;;;5089722;28;20368;-68
2021/12/03 07:10:31;;;;;;;6.40;1.70;;;5.40;99.90;;;;;;5090700;28;20293;-60
2021/12/03 07:12:57;;;;;;;8.43;1.50;;;5.10;99.90;;;;;;5091126;28;20772;-56
2021/12/03 07:15:23;;;;;;;7.07;1.60;;;4.80;99.90;;;;;;5071785;28;20209;-55
2021/12/03 07:17:50;;;;;;;3.83;1.30;;;4.60;99.90;;;;;;5072471;28;20545;-55
2021/12/03 07:20:18;;;;;;;2.60;1.50;;;4.50;99.90;;;;;;5090627;28;20188;-61
2021/12/03 07:22:44;;;;;;;3.20;1.70;;;4.40;99.90;;;;;;5090436;28;20649;-57
2021/12/03 07:25:10;;;;;;;2.70;1.60;;;4.30;99.90;;;;;;5090339;28;20199;-58
2021/12/03 07:27:36;;;;;;;4.20;1.80;;;4.30;99.90;;;;;;5090229;28;20185;-57
2021/12/03 07:30:04;;;;;;;2.50;1.53;;;4.20;99.90;;;;;;5090569;28;20191;-57
2021/12/03 07:32:30;;;;;;;2.80;1.70;;;4.20;99.90;;;;;;5090396;28;20185;-57
2021/12/03 07:34:57;;;;;;;2.80;1.63;;;4.10;99.90;;;;;;5090818;28;20714;-55
2021/12/03 07:37:23;;;;;;;2.60;1.30;;;3.90;99.90;;;;;;5090291;28;20185;-57
2021/12/03 07:39:48;;;;;;;1.83;1.20;;;3.70;99.90;;;;;;5090648;28;20189;-57
2021/12/03 07:42:14;;;;;;;8.93;1.20;;;3.60;99.90;;;;;;5089188;28;20181;-57
2021/12/03 07:44:40;;;;;;;2.57;2.00;;;3.50;99.90;;;;;;5071894;28;20223;-55
2021/12/03 07:47:06;;;;;;;1.77;1.27;;;3.40;99.90;;;;;;5091764;28;20636;-65
2021/12/03 07:49:32;;;;;;;2.03;1.60;;;3.40;99.90;;;;;;5091988;28;20246;-56
2021/12/03 07:51:58;;;;;;;3.43;2.17;;;3.30;99.90;;;;;;5091682;28;20283;-58
2021/12/03 07:54:24;;;;;;;3.20;1.90;;;3.20;99.90;;;;;;5090429;28;20306;-54
2021/12/03 07:56:50;;;;;;;4.90;2.23;;;3.10;99.90;;;;;;5090594;28;20212;-55
2021/12/03 07:59:16;;;;;;;2.87;1.63;;;3.00;99.90;;;;;;5090330;28;20619;-54
2021/12/03 08:01:43;;;;;;;4.27;2.00;;;2.90;99.90;;;;;;5090892;28;20172;-55
2021/12/03 08:04:10;;;;;;;3.63;1.80;;;2.80;99.90;;;;;;5090558;28;20180;-55
2021/12/03 08:06:39;;;;;;;2.03;1.13;;;2.80;99.90;;;;;;5072665;28;20184;-54
2021/12/03 08:09:05;;;;;;;0.70;0.70;;;2.70;99.90;;;;;;5091845;28;20175;-55
2021/12/03 08:11:31;;;;;;;4.97;1.53;;;2.70;99.90;;;;;;5073346;28;20176;-55
2021/12/03 08:13:57;;;;;;;3.70;1.50;;;2.60;99.90;;;;;;5091935;28;20648;-55
2021/12/03 08:16:22;;;;;;;3.73;1.43;;;2.50;99.90;;;;;;5091375;28;20261;-56
2021/12/03 08:18:50;;;;;;;3.10;1.60;;;2.50;99.90;;;;;;5091174;28;20200;-55
2021/12/03 08:21:15;;;;;;;3.27;1.70;;;2.40;99.90;;;;;;5091134;28;20195;-56
2021/12/03 08:23:41;;;;;;;3.73;1.80;;;2.30;99.90;;;;;;5091157;28;20203;-56
2021/12/03 08:26:07;;;;;;;5.00;1.60;;;2.30;99.90;;;;;;5073037;28;20188;-55
2021/12/03 08:28:33;;;;;;;6.50;2.57;;;2.20;99.90;;;;;;5073071;28;20266;-58
2021/12/03 08:30:59;;;;;;;4.47;2.63;;;2.10;99.90;;;;;;5091484;28;20309;-58
2021/12/03 08:33:25;;;;;;;3.53;2.23;;;2.00;99.90;;;;;;5072833;28;20187;-55
2021/12/03 08:35:51;;;;;;;3.17;2.10;;;1.90;99.90;;;;;;5091155;28;20270;-55
2021/12/03 08:38:17;;;;;;;4.10;2.43;;;1.80;99.90;;;;;;5090770;28;20659;-54
2021/12/03 08:40:43;;;;;;;2.07;1.50;;;1.80;99.90;;;;;;5090751;28;20182;-53
2021/12/03 08:43:08;;;;;;;4.67;3.30;;;1.70;99.90;;;;;;5073174;28;20182;-56
2021/12/03 08:45:36;;;;;;;3.83;2.13;;;1.60;99.90;;;;;;5091424;28;20178;-52
2021/12/03 08:48:04;;;;;;;4.10;2.63;;;1.60;99.90;;;;;;5091269;28;20224;-56
2021/12/03 08:50:33;;;;;;;3.90;2.47;;;1.60;99.90;;;;;;5090219;28;20186;-53
2021/12/03 08:55:44;;;;;;;5.77;2.63;;;1.50;99.90;;;;;;5091300;28;20305;-55
2021/12/03 08:58:10;;;;;;;5.77;2.93;;;1.50;99.90;;;;;;5091484;28;20303;-53
2021/12/03 09:00:37;;;;;;;6.40;2.73;;;1.50;99.90;;;;;;5091213;28;20656;-52
2021/12/03 09:03:06;;;;;;;5.87;3.40;;;1.60;99.90;;;;;;5090728;28;20187;-52
2021/12/03 09:05:34;;;;;;;6.83;2.90;;;1.60;99.90;;;;;;5090924;28;20278;-56
2021/12/03 09:08:00;;;;;;;5.47;2.17;;;1.60;99.90;;;;;;5090841;28;20705;-57
2021/12/03 09:10:26;;;;;;;5.03;2.97;;;1.60;99.90;;;;;;5090713;28;20194;-54
2021/12/03 09:12:53;;;;;;;3.40;2.27;;;1.60;99.90;;;;;;5090676;28;20235;-54
2021/12/03 09:15:43;;;;;;;10.93;2.80;;;1.70;99.90;;;;;;5090910;28;20338;-56
2021/12/03 09:18:27;;;;;;;6.37;3.67;;;1.70;99.90;;;;;;5090958;28;20287;-54
2021/12/03 09:20:58;;;;;;;5.07;2.93;;;1.80;99.90;;;;;;5091710;28;20264;-53
2021/12/03 09:26:05;;;;;;;5.47;3.00;;;1.90;99.90;;;;;;5090983;28;20964;-54
2021/12/03 09:28:33;;;;;;;4.93;2.90;;;1.90;99.90;;;;;;5090069;28;20190;-56
2021/12/03 09:31:00;;;;;;;5.83;3.03;;;1.90;99.90;;;;;;5091173;28;20202;-57
2021/12/03 09:33:28;;;;;;;4.57;2.70;;;2.00;99.90;;;;;;5090768;28;20554;-54
2021/12/03 09:35:58;;;;;;;5.57;2.63;;;1.90;99.90;;;;;;5090979;28;20260;-56
2021/12/03 09:38:25;;;;;;;4.30;2.37;;;1.90;99.90;;;;;;5090321;28;20676;-51
2021/12/03 09:40:51;;;;;;;4.37;2.43;;;1.90;99.90;;;;;;5091295;28;20527;-52
2021/12/03 09:43:17;;;;;;;3.83;1.93;;;1.90;99.90;;;;;;5090320;28;20588;-53
2021/12/03 09:45:54;;;;;;;6.53;2.53;;;1.90;99.90;;;;;;5090900;28;20266;-55
2021/12/03 09:48:41;;;;;;;3.63;2.27;;;1.90;99.90;;;;;;5074230;28;20186;-54
2021/12/03 09:51:06;;;;;;;2.00;0.87;;;1.90;99.90;;;;;;5074832;28;20709;-55
2021/12/03 09:56:17;;;;;;;5.70;2.57;;;1.90;99.90;;;;;;5090244;28;20337;-53
2021/12/03 10:04:26;;;;;;;3.33;1.80;;;1.90;99.90;;;;;;5093289;28;20520;-58
2021/12/03 10:15:26;;;;;;;3.27;1.63;;;2.00;99.90;;;;;;5093856;28;20290;-55
2021/12/03 10:18:09;;;;;;;3.20;1.90;;;1.90;99.90;;;;;;5093618;28;20182;-55
2021/12/03 10:47:46;;;;;;;7.70;2.47;;;1.70;99.90;;;;;;5092827;28;20193;-54
2021/12/03 11:30:50;;;;;;;0.10;0.10;;;1.40;99.90;;;;;;5092413;28;20242;-51
2021/12/03 11:39:06;;;;;;;0.03;0.03;;;1.40;99.90;;;;;;5092337;28;20189;-54
2021/12/03 11:50:59;;;;;;;1.60;1.23;;;1.50;99.90;;;;;;5091742;28;20561;-58
2021/12/03 12:47:22;;;;;;;0.10;0.10;;;1.40;99.90;;;;;;5049369;28;20205;-52
2021/12/03 13:06:48;;;;;;;0.10;0.10;;;1.20;99.90;;;;;;5090964;28;20273;-48
2021/12/03 13:27:05;;;;;;;1.17;1.17;;;1.00;99.90;;;;;;5087545;28;20193;-55
2021/12/03 14:48:29;;;;;;;0.43;0.43;;;0.80;99.90;;;;;;5085257;28;20257;-52
2021/12/03 14:57:12;;;;;;;0.50;0.50;;;0.80;99.90;;;;;;5007637;28;20199;-52
2021/12/03 14:59:42;;;;;;;0.50;0.50;;;0.80;99.90;;;;;;5007593;28;20210;-50
2021/12/03 15:02:22;;;;;;;1.47;0.63;;;0.80;99.90;;;;;;5038185;28;20249;-52
2021/12/03 15:07:31;;;;;;;0.83;0.47;;;0.80;99.90;;;;;;5069104;28;20626;-53
2021/12/03 15:09:57;;;;;;;1.27;1.17;;;0.80;99.90;;;;;;5068731;28;20162;-50
2021/12/03 15:18:30;;;;;;;0.80;0.80;;;0.70;99.90;;;;;;5087986;28;20189;-52
2021/12/03 15:26:18;;;;;;;0.13;0.13;;;0.70;99.90;;;;;;5034952;28;20196;-52
2021/12/03 15:31:30;;;;;;;2.37;1.57;;;0.70;99.90;;;;;;5068854;28;20174;-54
2021/12/03 15:36:33;;;;;;;0.13;0.13;;;0.60;99.90;;;;;;5051165;28;20201;-53
2021/12/03 16:04:17;;;;;;;1.03;0.93;;;0.70;99.90;;;;;;5089964;28;20184;-56
2021/12/03 16:09:15;;;;;;;0.23;0.23;;;0.60;99.90;;;;;;5089683;28;20181;-54
2021/12/03 16:11:47;;;;;;;0.57;0.57;;;0.60;99.90;;;;;;5088972;28;20291;-57
2021/12/03 16:17:04;;;;;;;0.00;0.00;;;0.60;99.90;;;;;;5088791;28;20176;-49
2021/12/03 16:43:31;;;;;;;0.10;0.10;;;0.50;99.90;;;;;;5088997;28;20188;-56
2021/12/03 16:44:46;;;;;;;2.63;1.87;;;0.60;99.90;;;;;;5088730;28;20171;-61
2021/12/03 16:52:44;;;;;;;0.07;0.07;;;0.50;99.90;;;;;;5073737;28;20202;-54
2021/12/03 16:55:06;;;;;;;1.23;1.20;;;0.50;99.90;;;;;;5087855;28;20238;-49
2021/12/03 16:57:33;;;;;;;4.78;1.67;;;0.50;99.90;;;;;;5070707;28;20398;-54
2021/12/03 17:00:05;;;;;;;1.40;0.90;;;0.50;99.90;;;;;;5088538;28;20636;-54
2021/12/03 17:02:36;;;;;;;0.90;0.90;;;0.40;99.90;;;;;;5089012;28;20192;-52
2021/12/03 17:08:18;;;;;;;1.43;0.83;;;0.40;99.90;;;;;;5089358;28;20672;-59
2021/12/03 17:16:02;;;;;;;0.77;0.77;;;0.30;99.90;;;;;;5093118;28;20237;-54
2021/12/03 17:56:11;;;;;;;0.50;0.50;;;-0.40;99.90;;;;;;5092768;28;20208;-64
2021/12/03 17:58:41;;;;;;;0.43;0.43;;;-0.40;99.90;;;;;;5092838;28;20625;-66
2021/12/03 18:01:16;;;;;;;2.83;2.63;;;-0.30;99.90;;;;;;5091706;28;20295;-55
2021/12/03 18:09:13;;;;;;;0.77;0.77;;;-0.30;99.90;;;;;;5071779;28;20169;-62
2021/12/03 18:50:14;;;;;;;1.07;1.07;;;-0.20;99.90;;;;;;5091422;28;20176;-58
2021/12/03 18:57:45;;;;;;;2.03;1.33;;;-0.10;99.90;;;;;;5091389;28;20188;-60
2021/12/03 19:00:16;;;;;;;0.50;0.50;;;-0.10;99.90;;;;;;5091523;28;20180;-59
2021/12/03 19:02:46;;;;;;;0.10;0.10;;;-0.10;99.90;;;;;;5073197;28;20187;-61
2021/12/03 19:06:21;;;;;;;0.47;0.47;;;-0.10;99.90;;;;;;5091338;28;20249;-58
2021/12/03 19:08:11;;;;;;;1.10;0.93;;;0.00;99.90;;;;;;5052148;28;20212;-61
2021/12/03 19:10:44;;;;;;;2.67;1.27;;;0.00;99.90;;;;;;5052144;28;20304;-60
2021/12/03 19:13:14;;;;;;;4.63;0.87;;;0.00;99.90;;;;;;5069266;28;21057;-59
2021/12/03 19:15:42;;;;;;;1.20;1.10;;;0.00;99.90;;;;;;5069070;28;20205;-70
2021/12/03 19:18:08;;;;;;;8.53;1.27;;;0.00;99.90;;;;;;5069176;28;20190;-60
2021/12/03 19:20:38;;;;;;;1.10;1.07;;;0.00;99.90;;;;;;5051031;28;20189;-60
2021/12/03 19:23:03;;;;;;;1.87;1.17;;;0.00;99.90;;;;;;5051207;28;20575;-64
2021/12/03 19:25:30;;;;;;;0.20;0.20;;;-0.10;99.90;;;;;;5069488;28;20196;-59
2021/12/03 19:27:56;;;;;;;0.77;0.77;;;-0.10;99.90;;;;;;5051391;28;20617;-62
2021/12/03 19:30:21;;;;;;;0.40;0.27;;;-0.10;99.90;;;;;;5069535;28;20845;-60
2021/12/03 19:32:47;;;;;;;3.10;2.80;;;0.00;99.90;;;;;;5050901;28;20212;-65
2021/12/03 19:35:13;;;;;;;0.60;0.60;;;-0.10;99.90;;;;;;5069315;28;20213;-61
2021/12/03 19:37:39;;;;;;;0.30;0.30;;;-0.10;99.90;;;;;;5051500;28;20822;-61
2021/12/03 19:40:10;;;;;;;2.57;1.17;;;-0.20;99.90;;;;;;5069338;28;20181;-62
2021/12/03 19:42:46;;;;;;;0.13;0.13;;;-0.20;99.90;;;;;;5070019;28;20554;-58
2021/12/03 19:45:17;;;;;;;1.30;0.93;;;-0.30;99.90;;;;;;5052654;28;20189;-59
2021/12/03 19:47:54;;;;;;;0.30;0.30;;;-0.30;99.90;;;;;;5070129;28;20181;-60
2021/12/03 19:50:28;;;;;;;0.30;0.30;;;-0.40;99.90;;;;;;5069900;28;20211;-60
2021/12/03 19:53:01;;;;;;;0.20;0.20;;;-0.50;99.90;;;;;;5070637;28;20170;-60
2021/12/03 19:55:27;;;;;;;0.57;0.40;;;-0.50;99.90;;;;;;5070381;28;20220;-59
2021/12/03 19:57:53;;;;;;;9.23;0.53;;;-0.50;99.90;;;;;;5081718;28;20188;-60
2021/12/03 20:00:19;;;;;;;1.03;0.77;;;-0.60;99.90;;;;;;5090427;28;20181;-60
2021/12/03 20:02:45;;;;;;;0.00;0.00;;;-0.70;99.90;;;;;;5089373;28;20177;-62
2021/12/03 20:05:11;;;;;;;0.33;0.33;;;-0.70;99.90;;;;;;5090484;28;20279;-62
2021/12/03 20:07:38;;;;;;;0.50;0.50;;;-0.80;99.90;;;;;;5090810;28;20695;-61
2021/12/03 20:10:09;;;;;;;1.60;0.57;;;-0.90;99.90;;;;;;5090024;28;20184;-59
2021/12/03 20:12:35;;;;;;;2.57;0.57;;;-0.90;99.90;;;;;;5090672;28;20996;-62
2021/12/03 20:15:05;;;;;;;0.57;0.57;;;-1.00;99.90;;;;;;5089932;28;20247;-62
2021/12/03 20:17:34;;;;;;;0.13;0.13;;;-0.90;99.90;;;;;;5090900;28;20507;-64
2021/12/03 20:20:02;;;;;;;0.10;0.10;;;-1.00;99.90;;;;;;5090125;28;20191;-59
2021/12/03 20:28:04;;;;;;;0.10;0.10;;;-1.00;99.90;;;;;;5034516;28;20221;-63
2021/12/03 20:30:46;;;;;;;0.57;0.57;;;-1.00;99.90;;;;;;5090495;28;20267;-63
2021/12/03 20:38:23;;;;;;;0.77;0.77;;;-1.20;99.90;;;;;;5090166;28;20184;-59
2021/12/03 20:40:53;;;;;;;0.23;0.20;;;-1.20;99.90;;;;;;5056315;28;20181;-62